createdAt,value
2018-09-21T00:01:39.464Z,100645.03
2018-09-21T00:04:10.539Z,100644.25
2018-09-21T00:06:38.829Z,100640.42
2018-09-21T00:09:08.208Z,100635.45
2018-09-21T00:11:36.496Z,100639.25
2018-09-21T00:14:04.596Z,100625.02
2018-09-21T00:16:32.658Z,100632.84
2018-09-21T00:19:00.729Z,100618.02
2018-09-21T00:21:28.817Z,100621.22
2018-09-21T00:23:56.829Z,100613.63
2018-09-21T00:26:24.887Z,100611.20
2018-09-21T00:28:53.192Z,100604.83
2018-09-21T00:31:21.248Z,100601.44
2018-09-21T00:33:49.317Z,100606.82
2018-09-21T00:36:17.399Z,100603.03
2018-09-21T00:38:45.456Z,100593.05
2018-09-21T00:41:13.558Z,100587.66
2018-09-21T00:43:41.595Z,100582.47
2018-09-21T00:46:09.644Z,100579.67
2018-09-21T00:48:37.696Z,100569.31
2018-09-21T00:51:05.796Z,100565.30
2018-09-21T00:53:33.850Z,100562.90
2018-09-21T00:56:01.936Z,100557.52
2018-09-21T00:58:29.984Z,100548.12
2018-09-21T01:00:58.044Z,100549.11
2018-09-21T01:03:26.089Z,100553.50
2018-09-21T01:05:54.153Z,100549.70
2018-09-21T01:08:22.193Z,100541.30
2018-09-21T01:10:50.262Z,100547.12
2018-09-21T01:13:18.314Z,100540.12
2018-09-21T01:15:46.358Z,100539.53
2018-09-21T01:18:14.412Z,100531.91
2018-09-21T01:20:42.460Z,100535.52
2018-09-21T01:23:10.514Z,100532.49
2018-09-21T01:25:38.584Z,100530.09
2018-09-21T01:28:06.652Z,100524.50
2018-09-21T01:30:34.684Z,100527.30
2018-09-21T01:33:02.752Z,100526.89
2018-09-21T01:35:30.831Z,100517.25
2018-09-21T01:37:58.859Z,100521.23
2018-09-21T01:40:26.923Z,100516.03
2018-09-21T01:42:54.972Z,100514.81
2018-09-21T01:45:23.040Z,100511.42
2018-09-21T01:47:51.091Z,100512.64
2018-09-21T01:50:19.188Z,100504.02
2018-09-21T01:52:47.200Z,100498.61
2018-09-21T01:55:15.275Z,100495.03
2018-09-21T01:57:43.321Z,100492.01
2018-09-21T02:00:11.385Z,100482.39
2018-09-21T02:02:39.480Z,100476.39
2018-09-21T02:05:07.525Z,100477.02
2018-09-21T02:07:35.595Z,100479.41
2018-09-21T02:10:03.642Z,100473.19
2018-09-21T02:12:31.704Z,100469.80
2018-09-21T02:14:59.803Z,100459.78
2018-09-21T02:17:27.848Z,100459.19
2018-09-21T02:19:55.888Z,100446.19
2018-09-21T02:22:23.935Z,100441.18
2018-09-21T02:24:52.017Z,100432.41
2018-09-21T02:27:20.060Z,100429.80
2018-09-21T02:29:48.108Z,100424.59
2018-09-21T02:32:16.178Z,100420.61
2018-09-21T02:34:44.224Z,100416.41
2018-09-21T02:37:12.292Z,100419.20
2018-09-21T02:39:40.352Z,100420.42
2018-09-21T02:42:08.426Z,100415.22
2018-09-21T02:44:36.470Z,100412.82
2018-09-21T02:47:04.512Z,100404.83
2018-09-21T02:49:32.551Z,100400.03
2018-09-21T02:52:00.625Z,100397.63
2018-09-21T02:54:28.677Z,100397.84
2018-09-21T02:56:56.719Z,100393.27
2018-09-21T02:59:24.784Z,100386.05
2018-09-21T03:01:52.840Z,100382.24
2018-09-21T03:04:20.881Z,100378.44
2018-09-21T03:06:49.029Z,100372.05
2018-09-21T03:09:17.088Z,100368.25
2018-09-21T03:11:45.128Z,100366.66
2018-09-21T03:14:13.184Z,100368.05
2018-09-21T03:16:41.220Z,100357.64
2018-09-21T03:19:09.271Z,100347.44
2018-09-21T03:21:37.315Z,100336.41
2018-09-21T03:24:05.368Z,100334.41
2018-09-21T03:26:33.442Z,100338.42
2018-09-21T03:29:01.496Z,100337.41
2018-09-21T03:31:29.577Z,100326.00
2018-09-21T03:33:57.652Z,100324.00
2018-09-21T03:36:25.701Z,100322.81
2018-09-21T03:38:53.791Z,100317.21
2018-09-21T03:41:21.841Z,100311.98
2018-09-21T03:43:49.888Z,100305.80
2018-09-21T03:46:17.968Z,100297.39
2018-09-21T03:48:46.040Z,100285.78
2018-09-21T03:51:14.140Z,100271.59
2018-09-21T03:53:42.226Z,100273.77
2018-09-21T03:56:10.232Z,100265.97
2018-09-21T03:58:38.289Z,100257.56
2018-09-21T04:01:06.787Z,100257.75
2018-09-21T04:03:34.884Z,100251.14
2018-09-21T04:06:02.981Z,100237.34
2018-09-21T04:08:31.036Z,100231.73
2018-09-21T04:10:59.160Z,100229.12
2018-09-21T04:13:27.229Z,100222.72
2018-09-21T04:15:55.287Z,100207.70
2018-09-21T04:18:23.351Z,100209.67
2018-09-21T04:20:51.396Z,100196.05
2018-09-21T04:23:19.478Z,100186.45
2018-09-21T04:25:47.524Z,100186.25
2018-09-21T04:28:15.588Z,100173.81
2018-09-21T04:30:43.657Z,100176.83
2018-09-21T04:33:11.725Z,100175.40
2018-09-21T04:35:39.800Z,100183.98
2018-09-21T04:38:07.842Z,100173.80
2018-09-21T04:40:35.912Z,100171.17
2018-09-21T04:43:03.973Z,100169.77
2018-09-21T04:45:32.044Z,100155.75
2018-09-21T04:48:00.096Z,100148.95
2018-09-21T04:50:28.148Z,100142.34
2018-09-21T04:52:56.220Z,100133.51
2018-09-21T04:55:24.292Z,100132.11
2018-09-21T04:57:52.355Z,100116.69
2018-09-21T05:00:20.420Z,100118.48
2018-09-21T05:02:48.472Z,100109.86
2018-09-21T05:05:16.536Z,100102.05
2018-09-21T05:07:44.592Z,100096.02
2018-09-21T05:10:12.639Z,100082.81
2018-09-21T05:12:40.725Z,100086.00
2018-09-21T05:15:08.792Z,100077.17
2018-09-21T05:17:36.856Z,100079.55
2018-09-21T05:20:04.977Z,100071.91
2018-09-21T05:22:33.052Z,100074.45
2018-09-21T05:25:01.149Z,100059.20
2018-09-21T05:27:29.234Z,100054.19
2018-09-21T05:29:57.280Z,100053.55
2018-09-21T05:32:25.360Z,100045.90
2018-09-21T05:34:53.428Z,100040.45
2018-09-21T05:37:21.530Z,100047.42
2018-09-21T05:39:49.605Z,100034.75
2018-09-21T05:42:17.695Z,100030.71
2018-09-21T05:44:45.800Z,100034.88
2018-09-21T05:47:13.920Z,100037.24
2018-09-21T05:49:41.973Z,100041.78
2018-09-21T05:52:10.584Z,100039.14
2018-09-21T05:54:38.649Z,100036.28
2018-09-21T05:57:06.832Z,100031.42
2018-09-21T05:59:34.912Z,100020.95
2018-09-21T06:02:03.029Z,100015.49
2018-09-21T06:04:31.050Z,100019.61
2018-09-21T06:06:59.141Z,100013.55
2018-09-21T06:09:27.218Z,100013.06
2018-09-21T06:11:55.280Z,100012.64
2018-09-21T06:14:23.353Z,100010.75
2018-09-21T06:16:51.428Z,100000.64
2018-09-21T06:19:19.515Z,99991.53
2018-09-21T06:21:47.557Z,99978.17
2018-09-21T06:24:15.633Z,99978.80
2018-09-21T06:26:43.700Z,99980.84
2018-09-21T06:29:11.760Z,99966.44
2018-09-21T06:31:39.833Z,99965.10
2018-09-21T06:34:07.944Z,99958.81
2018-09-21T06:36:36.032Z,99965.00
2018-09-21T06:39:06.264Z,99942.67
2018-09-21T06:41:34.375Z,99923.30
2018-09-21T06:44:02.440Z,99940.47
2018-09-21T06:46:30.516Z,99933.27
2018-09-21T06:48:58.563Z,99932.32
2018-09-21T06:51:26.632Z,99932.25
2018-09-21T06:53:54.689Z,99934.22
2018-09-21T06:56:22.764Z,99937.56
2018-09-21T06:58:50.823Z,99922.47
2018-09-21T07:01:18.957Z,99932.44
2018-09-21T07:03:46.963Z,99930.55
2018-09-21T07:06:15.113Z,99920.99
2018-09-21T07:08:43.159Z,99916.26
2018-09-21T07:11:11.212Z,99915.78
2018-09-21T07:13:39.280Z,99915.70
2018-09-21T07:16:07.332Z,99913.44
2018-09-21T07:18:35.395Z,99914.94
2018-09-21T07:21:03.454Z,99915.66
2018-09-21T07:23:31.501Z,99902.06
2018-09-21T07:25:59.599Z,99907.13
2018-09-21T07:28:27.667Z,99915.63
2018-09-21T07:30:55.730Z,99921.09
2018-09-21T07:33:23.780Z,99925.91
2018-09-21T07:35:51.855Z,99915.27
2018-09-21T07:38:19.912Z,99910.02
2018-09-21T07:40:48.000Z,99901.14
2018-09-21T07:43:16.069Z,99908.66
2018-09-21T07:45:44.130Z,99907.13
2018-09-21T07:48:12.208Z,99902.36
2018-09-21T07:50:40.360Z,99893.83
2018-09-21T07:53:08.626Z,99898.76
2018-09-21T07:55:36.696Z,99892.66
2018-09-21T07:58:04.756Z,99893.86
2018-09-21T08:00:32.823Z,99886.19
2018-09-21T08:03:00.920Z,99880.74
2018-09-21T08:05:35.075Z,99875.69
2018-09-21T08:08:04.671Z,99866.66
2018-09-21T08:10:32.713Z,99880.51
2018-09-21T08:13:01.348Z,99878.64
2018-09-21T08:15:29.999Z,99870.81
2018-09-21T08:17:58.120Z,99872.23
2018-09-21T08:20:26.540Z,99864.37
2018-09-21T08:22:54.644Z,99846.48
2018-09-21T08:25:22.681Z,99822.48
2018-09-21T08:27:50.740Z,99842.41
2018-09-21T08:30:18.877Z,99839.77
2018-09-21T08:32:46.942Z,99829.94
2018-09-21T08:35:14.992Z,99839.89
2018-09-21T08:37:43.103Z,99845.16
2018-09-21T08:40:11.176Z,99842.22
2018-09-21T08:42:39.248Z,99838.70
2018-09-21T08:45:07.767Z,99836.38
2018-09-21T08:47:35.825Z,99827.37
2018-09-21T08:50:03.876Z,99842.59
2018-09-21T08:52:31.937Z,99853.16
2018-09-21T08:55:00.056Z,99843.54
2018-09-21T08:57:28.113Z,99850.48
2018-09-21T08:59:56.186Z,99854.91
2018-09-21T09:02:24.232Z,99853.50
2018-09-21T09:04:52.311Z,99860.62
2018-09-21T09:07:20.383Z,99863.45
2018-09-21T09:09:48.428Z,99870.86
2018-09-21T09:12:16.501Z,99868.09
2018-09-21T09:14:44.561Z,99858.55
2018-09-21T09:17:12.641Z,99869.86
2018-09-21T09:19:40.702Z,99869.67
2018-09-21T09:22:08.772Z,99886.13
2018-09-21T09:24:36.889Z,99901.32
2018-09-21T09:27:04.936Z,99882.42
2018-09-21T09:29:32.991Z,99897.62
2018-09-21T09:32:01.097Z,99888.88
2018-09-21T09:34:29.159Z,99887.88
2018-09-21T09:36:57.302Z,99902.41
2018-09-21T09:39:25.261Z,99886.42
2018-09-21T09:41:53.330Z,99905.86
2018-09-21T09:44:21.404Z,99883.87
2018-09-21T09:46:49.488Z,99908.61
2018-09-21T09:49:17.583Z,99885.44
2018-09-21T09:51:45.634Z,99899.39
2018-09-21T09:54:13.704Z,99907.73
2018-09-21T09:56:41.772Z,99897.70
2018-09-21T09:59:09.876Z,99903.94
2018-09-21T10:01:37.944Z,99910.33
2018-09-21T10:04:06.020Z,99923.31
2018-09-21T10:06:34.104Z,99912.38
2018-09-21T10:09:02.174Z,99898.20
2018-09-21T10:11:30.253Z,99898.05
2018-09-21T10:13:58.312Z,99910.40
2018-09-21T10:16:27.237Z,99914.53
2018-09-21T10:18:55.261Z,99910.75
2018-09-21T10:21:23.324Z,99898.83
2018-09-21T10:23:51.382Z,99898.41
2018-09-21T10:26:19.451Z,99886.05
2018-09-21T10:28:47.643Z,99883.93
2018-09-21T10:31:15.597Z,99876.34
2018-09-21T10:33:43.770Z,99861.45
2018-09-21T10:36:11.735Z,99864.00
2018-09-21T10:38:39.873Z,99871.75
2018-09-21T10:41:07.865Z,99876.14
2018-09-21T10:43:35.928Z,99886.68
2018-09-21T10:46:03.996Z,99909.20
2018-09-21T10:48:32.061Z,99954.31
2018-09-21T10:51:00.471Z,100018.96
2018-09-21T10:53:28.235Z,100011.02
2018-09-21T10:55:56.299Z,100046.14
2018-09-21T10:58:24.376Z,100042.41
2018-09-21T11:00:52.449Z,100052.30
2018-09-21T11:03:20.509Z,100057.69
2018-09-21T11:05:48.571Z,100057.00
2018-09-21T11:08:16.655Z,100051.45
2018-09-21T11:10:44.916Z,100053.47
2018-09-21T11:13:13.042Z,100066.23
2018-09-21T11:15:41.038Z,100072.80
2018-09-21T11:18:09.126Z,100070.58
2018-09-21T11:20:37.201Z,100057.73
2018-09-21T11:23:05.469Z,100074.44
2018-09-21T11:25:33.541Z,100082.98
2018-09-21T11:28:01.613Z,100098.73
2018-09-21T11:30:29.681Z,100094.73
2018-09-21T11:32:57.770Z,100102.28
2018-09-21T11:35:25.837Z,100093.14
2018-09-21T11:37:53.899Z,100087.35
2018-09-21T11:40:21.962Z,100095.94
2018-09-21T11:42:50.012Z,100094.55
2018-09-21T11:45:18.101Z,100103.95
2018-09-21T11:47:46.197Z,100103.75
2018-09-21T11:50:14.452Z,100100.77
2018-09-21T11:52:42.520Z,100119.14
2018-09-21T11:55:10.588Z,100145.48
2018-09-21T11:57:38.861Z,100158.64
2018-09-21T12:00:06.937Z,100170.22
2018-09-21T12:02:34.985Z,100177.86
2018-09-21T12:05:03.107Z,100178.45
2018-09-21T12:07:31.105Z,100180.25
2018-09-21T12:09:59.177Z,100179.08
2018-09-21T12:12:27.239Z,100160.94
2018-09-21T12:14:55.325Z,100156.38
2018-09-21T12:17:23.386Z,100153.41
2018-09-21T12:19:51.438Z,100160.39
2018-09-21T12:22:19.493Z,100161.78
2018-09-21T12:24:47.556Z,100176.34
2018-09-21T12:27:15.631Z,100173.14
2018-09-21T12:29:43.705Z,100192.09
2018-09-21T12:32:11.769Z,100189.71
2018-09-21T12:34:39.864Z,100193.09
2018-09-21T12:37:07.930Z,100183.51
2018-09-21T12:39:35.996Z,100166.20
2018-09-21T12:42:04.051Z,100155.80
2018-09-21T12:44:32.183Z,100166.97
2018-09-21T12:47:00.200Z,100196.70
2018-09-21T12:49:28.269Z,100216.03
2018-09-21T12:51:56.334Z,100219.04
2018-09-21T12:54:24.442Z,100216.79
2018-09-21T12:56:52.559Z,100215.61
2018-09-21T12:59:20.605Z,100202.23
2018-09-21T13:01:48.663Z,100199.84
2018-09-21T13:04:16.732Z,100199.44
2018-09-21T13:06:44.797Z,100210.62
2018-09-21T13:09:12.872Z,100219.00
2018-09-21T13:11:40.914Z,100233.02
2018-09-21T13:14:08.981Z,100234.64
2018-09-21T13:16:37.036Z,100215.08
2018-09-21T13:19:05.161Z,100217.47
2018-09-21T13:21:40.026Z,100217.88
2018-09-21T13:24:08.092Z,100226.66
2018-09-21T13:26:36.160Z,100239.02
2018-09-21T13:29:04.184Z,100237.84
2018-09-21T13:31:32.256Z,100230.50
2018-09-21T13:34:00.295Z,100219.91
2018-09-21T13:36:28.367Z,100228.92
2018-09-21T13:38:56.421Z,100218.92
2018-09-21T13:41:24.506Z,100232.89
2018-09-21T13:43:52.565Z,100231.31
2018-09-21T13:46:20.653Z,100232.67
2018-09-21T13:48:48.722Z,100237.63
2018-09-21T13:51:16.796Z,100226.04
2018-09-21T13:53:44.861Z,100234.23
2018-09-21T13:56:12.932Z,100235.80
2018-09-21T13:58:40.993Z,100239.98
2018-09-21T14:01:09.053Z,100249.95
2018-09-21T14:03:37.124Z,100248.95
2018-09-21T14:06:05.916Z,100243.37
2018-09-21T14:08:34.841Z,100251.98
2018-09-21T14:11:02.940Z,100258.92
2018-09-21T14:13:30.990Z,100260.89
2018-09-21T14:15:59.080Z,100260.89
2018-09-21T14:18:27.149Z,100267.87
2018-09-21T14:20:55.538Z,100264.08
2018-09-21T14:23:23.669Z,100274.03
2018-09-21T14:25:51.740Z,100275.84
2018-09-21T14:28:19.820Z,100280.42
2018-09-21T14:30:47.895Z,100284.39
2018-09-21T14:33:15.956Z,100281.02
2018-09-21T14:35:44.086Z,100289.62
2018-09-21T14:38:12.105Z,100297.20
2018-09-21T14:40:40.220Z,100294.63
2018-09-21T14:43:08.325Z,100300.39
2018-09-21T14:45:36.374Z,100306.20
2018-09-21T14:48:04.460Z,100301.60
2018-09-21T14:50:32.561Z,100303.36
2018-09-21T14:53:00.609Z,100304.57
2018-09-21T14:55:28.714Z,100306.56
2018-09-21T14:57:56.801Z,100310.56
2018-09-21T15:00:24.872Z,100311.37
2018-09-21T15:02:53.216Z,100318.37
2018-09-21T15:05:21.286Z,100313.20
2018-09-21T15:07:49.689Z,100305.23
2018-09-21T15:10:17.760Z,100311.05
2018-09-21T15:12:45.840Z,100313.09
2018-09-21T15:15:13.940Z,100320.92
2018-09-21T15:17:41.992Z,100308.20
2018-09-21T15:20:10.051Z,100329.98
2018-09-21T15:22:38.249Z,100326.79
2018-09-21T15:25:06.360Z,100328.18
2018-09-21T15:27:34.452Z,100345.34
2018-09-21T15:30:02.510Z,100353.92
2018-09-21T15:32:30.591Z,100359.91
2018-09-21T15:34:58.660Z,100352.65
2018-09-21T15:37:26.704Z,100363.99
2018-09-21T15:39:54.760Z,100371.86
2018-09-21T15:42:22.848Z,100352.05
2018-09-21T15:44:50.909Z,100352.95
2018-09-21T15:47:18.976Z,100366.11
2018-09-21T15:49:47.040Z,100360.57
2018-09-21T15:52:15.092Z,100363.09
2018-09-21T15:54:43.126Z,100371.62
2018-09-21T15:57:11.167Z,100380.14
2018-09-21T15:59:39.233Z,100379.30
2018-09-21T16:02:07.302Z,100385.86
2018-09-21T16:04:35.357Z,100386.42
2018-09-21T16:07:03.463Z,100384.09
2018-09-21T16:09:31.505Z,100376.12
2018-09-21T16:11:59.668Z,100372.14
2018-09-21T16:14:27.658Z,100383.25
2018-09-21T16:16:55.701Z,100381.53
2018-09-21T16:19:23.800Z,100379.17
2018-09-21T16:21:51.868Z,100377.20
2018-09-21T16:24:19.999Z,100376.94
2018-09-21T16:26:48.004Z,100376.39
2018-09-21T16:29:16.084Z,100383.66
2018-09-21T16:31:44.164Z,100377.36
2018-09-21T16:34:12.264Z,100393.61
2018-09-21T16:36:40.343Z,100396.06
2018-09-21T16:39:09.908Z,100392.75
2018-09-21T16:41:38.030Z,100401.89
2018-09-21T16:44:06.346Z,100401.20
2018-09-21T16:46:34.549Z,100409.67
2018-09-21T16:49:02.619Z,100412.74
2018-09-21T16:51:30.713Z,100427.03
2018-09-21T16:53:58.719Z,100431.63
2018-09-21T16:56:26.798Z,100430.69
2018-09-21T16:58:54.878Z,100433.39
2018-09-21T17:01:22.945Z,100440.33
2018-09-21T17:03:51.009Z,100444.32
2018-09-21T17:06:19.080Z,100448.67
2018-09-21T17:08:47.149Z,100454.58
2018-09-21T17:11:15.233Z,100456.52
2018-09-21T17:13:43.278Z,100462.03
2018-09-21T17:16:11.339Z,100475.91
2018-09-21T17:18:39.409Z,100486.05
2018-09-21T17:21:07.473Z,100485.05
2018-09-21T17:23:35.529Z,100483.07
2018-09-21T17:26:03.614Z,100477.00
2018-09-21T17:28:31.701Z,100479.75
2018-09-21T17:30:59.797Z,100489.44
2018-09-21T17:33:27.865Z,100490.98
2018-09-21T17:35:55.920Z,100497.57
2018-09-21T17:38:24.049Z,100495.17
2018-09-21T17:40:52.147Z,100496.76
2018-09-21T17:43:20.373Z,100499.09
2018-09-21T17:45:48.444Z,100502.06
2018-09-21T17:48:16.570Z,100506.60
2018-09-21T17:50:44.651Z,100506.13
2018-09-21T17:53:12.715Z,100512.79
2018-09-21T17:55:40.777Z,100514.09
2018-09-21T17:58:08.876Z,100527.32
2018-09-21T18:00:36.976Z,100527.91
2018-09-21T18:03:05.041Z,100543.38
2018-09-21T18:05:33.106Z,100542.95
2018-09-21T18:08:01.150Z,100539.38
2018-09-21T18:10:29.248Z,100542.52
2018-09-21T18:12:57.792Z,100543.13
2018-09-21T18:15:25.872Z,100542.09
2018-09-21T18:17:54.040Z,100553.23
2018-09-21T18:20:22.132Z,100554.81
2018-09-21T18:22:50.290Z,100556.20
2018-09-21T18:25:18.388Z,100566.91
2018-09-21T18:27:46.448Z,100572.69
2018-09-21T18:30:14.504Z,100569.47
2018-09-21T18:32:42.572Z,100575.80
2018-09-21T18:35:10.630Z,100575.52
2018-09-21T18:37:38.681Z,100573.11
2018-09-21T18:40:07.480Z,100586.37
2018-09-21T18:42:35.542Z,100592.09
2018-09-21T18:45:03.632Z,100593.42
2018-09-21T18:47:31.719Z,100606.34
2018-09-21T18:50:00.080Z,100605.84
2018-09-21T18:52:34.005Z,100624.67
2018-09-21T18:55:02.064Z,100634.73
2018-09-21T18:57:30.107Z,100633.25
2018-09-21T18:59:58.160Z,100622.63
2018-09-21T19:02:26.228Z,100644.64
2018-09-21T19:04:54.279Z,100632.20
2018-09-21T19:07:27.800Z,100644.28
2018-09-21T19:09:55.851Z,100661.50
2018-09-21T19:12:23.996Z,100658.86
2018-09-21T19:14:52.089Z,100658.73
2018-09-21T19:17:20.169Z,100658.15
2018-09-21T19:19:48.264Z,100662.32
2018-09-21T19:22:16.490Z,100668.84
2018-09-21T19:24:44.621Z,100665.85
2018-09-21T19:27:12.676Z,100660.42
2018-09-21T19:29:40.740Z,100674.27
2018-09-21T19:32:08.844Z,100667.45
2018-09-21T19:34:36.892Z,100679.53
2018-09-21T19:37:05.032Z,100676.45
2018-09-21T19:39:33.132Z,100680.55
2018-09-21T19:42:01.192Z,100673.87
2018-09-21T19:44:29.264Z,100667.42
2018-09-21T19:46:57.364Z,100677.53
2018-09-21T19:49:25.450Z,100691.81
2018-09-21T19:51:53.537Z,100686.44
2018-09-21T19:54:21.650Z,100692.30
2018-09-21T19:56:49.701Z,100705.52
2018-09-21T19:59:17.808Z,100693.88
2018-09-21T20:01:45.873Z,100703.36
2018-09-21T20:04:13.950Z,100710.15
2018-09-21T20:06:42.004Z,100716.54
2018-09-21T20:09:11.226Z,100724.48
2018-09-21T20:11:39.279Z,100725.20
2018-09-21T20:14:07.384Z,100730.08
2018-09-21T20:16:35.491Z,100725.75
2018-09-21T20:19:03.518Z,100727.17
2018-09-21T20:21:31.636Z,100735.64
2018-09-21T20:23:59.708Z,100754.55
2018-09-21T20:26:27.788Z,100755.48
2018-09-21T20:28:55.849Z,100761.28
2018-09-21T20:31:29.519Z,100761.77
2018-09-21T20:33:57.572Z,100761.11
2018-09-21T20:36:25.646Z,100776.62
2018-09-21T20:38:53.712Z,100772.00
2018-09-21T20:41:21.777Z,100767.05
2018-09-21T20:43:49.832Z,100769.73
2018-09-21T20:46:17.880Z,100770.55
2018-09-21T20:48:45.961Z,100782.13
2018-09-21T20:51:14.036Z,100794.53
2018-09-21T20:53:42.088Z,100796.39
2018-09-21T20:56:10.145Z,100791.17
2018-09-21T20:58:38.190Z,100789.00
2018-09-21T21:01:06.288Z,100795.83
2018-09-21T21:03:34.355Z,100792.02
2018-09-21T21:06:02.419Z,100794.45
2018-09-21T21:08:30.564Z,100806.84
2018-09-21T21:10:58.640Z,100807.67
2018-09-21T21:13:26.688Z,100803.52
2018-09-21T21:15:54.771Z,100802.97
2018-09-21T21:18:23.112Z,100794.30
2018-09-21T21:20:51.185Z,100795.22
2018-09-21T21:23:19.232Z,100788.88
2018-09-21T21:25:47.334Z,100785.64
2018-09-21T21:28:15.389Z,100798.47
2018-09-21T21:30:43.459Z,100801.25
2018-09-21T21:33:11.531Z,100811.31
2018-09-21T21:35:39.615Z,100815.69
2018-09-21T21:38:07.700Z,100833.78
2018-09-21T21:40:35.758Z,100821.45
2018-09-21T21:43:03.807Z,100833.21
2018-09-21T21:45:31.877Z,100833.46
2018-09-21T21:47:59.928Z,100841.17
2018-09-21T21:50:28.020Z,100848.00
2018-09-21T21:52:56.105Z,100841.98
2018-09-21T21:55:24.190Z,100835.27
2018-09-21T21:57:52.241Z,100841.52
2018-09-21T22:00:20.316Z,100841.05
2018-09-21T22:02:48.425Z,100833.55
2018-09-21T22:05:16.484Z,100833.19
2018-09-21T22:07:44.551Z,100844.73
2018-09-21T22:10:12.616Z,100839.55
2018-09-21T22:12:46.019Z,100838.48
2018-09-21T22:15:18.556Z,100840.11
2018-09-21T22:17:47.036Z,100838.94
2018-09-21T22:20:15.161Z,100843.70
2018-09-21T22:22:43.212Z,100847.38
2018-09-21T22:25:11.857Z,100825.22
2018-09-21T22:27:40.132Z,100842.05
2018-09-21T22:30:08.723Z,100838.91
2018-09-21T22:32:36.860Z,100845.25
2018-09-21T22:35:04.956Z,100841.55
2018-09-21T22:37:32.999Z,100834.88
2018-09-21T22:40:01.070Z,100843.50
2018-09-21T22:42:29.104Z,100843.64
2018-09-21T22:44:57.203Z,100840.05
2018-09-21T22:47:25.240Z,100848.36
2018-09-21T22:49:53.293Z,100840.62
2018-09-21T22:52:21.348Z,100844.41
2018-09-21T22:54:49.413Z,100857.78
2018-09-21T22:57:17.460Z,100855.71
2018-09-21T22:59:45.521Z,100859.30
2018-09-21T23:02:13.663Z,100851.09
2018-09-21T23:04:41.720Z,100859.61
2018-09-21T23:07:09.780Z,100860.90
2018-09-21T23:09:37.869Z,100858.13
2018-09-21T23:12:05.924Z,100869.20
2018-09-21T23:14:33.982Z,100857.66
2018-09-21T23:17:02.055Z,100855.46
2018-09-21T23:19:30.109Z,100858.36
2018-09-21T23:21:58.185Z,100855.69
2018-09-21T23:24:26.241Z,100858.80
2018-09-21T23:26:54.319Z,100864.91
2018-09-21T23:29:22.385Z,100869.28
2018-09-21T23:31:50.510Z,100873.56
2018-09-21T23:34:18.554Z,100865.58
2018-09-21T23:36:46.582Z,100877.25
2018-09-21T23:39:14.648Z,100876.08
2018-09-21T23:41:42.711Z,100882.44
2018-09-21T23:44:10.840Z,100881.74
2018-09-21T23:46:38.952Z,100889.60
2018-09-21T23:49:07.068Z,100878.21
2018-09-21T23:51:35.272Z,100885.60
2018-09-21T23:54:03.328Z,100878.08
2018-09-21T23:56:31.428Z,100887.33
2018-09-21T23:58:59.496Z,100889.53
